createdAt,value
2023-04-27T00:02:00.809Z,13.70
2023-04-27T00:04:28.267Z,13.70
2023-04-27T00:06:55.672Z,13.70
2023-04-27T00:09:22.931Z,13.80
2023-04-27T00:11:50.161Z,13.80
2023-04-27T00:14:17.387Z,13.70
2023-04-27T00:16:44.778Z,13.80
2023-04-27T00:19:13.878Z,13.80
2023-04-27T00:21:41.799Z,13.90
2023-04-27T00:24:09.065Z,13.80
2023-04-27T00:26:36.325Z,13.80
2023-04-27T00:29:03.611Z,13.80
2023-04-27T00:31:30.835Z,13.60
2023-04-27T00:33:58.121Z,13.50
2023-04-27T00:36:25.422Z,13.50
2023-04-27T00:38:53.485Z,13.40
2023-04-27T00:41:20.890Z,13.50
2023-04-27T00:43:48.284Z,13.50
2023-04-27T00:46:17.281Z,13.50
2023-04-27T00:48:44.758Z,13.50
2023-04-27T00:51:12.214Z,13.50
2023-04-27T00:53:39.678Z,13.50
2023-04-27T00:56:07.798Z,13.50
2023-04-27T00:58:35.182Z,13.50
2023-04-27T01:01:03.684Z,13.40
2023-04-27T01:03:31.485Z,13.40
2023-04-27T01:06:01.515Z,13.40
2023-04-27T01:08:29.949Z,13.40
2023-04-27T01:10:57.375Z,13.30
2023-04-27T01:13:24.783Z,13.20
2023-04-27T01:15:52.047Z,13.20
2023-04-27T01:18:19.460Z,13.20
2023-04-27T01:20:46.824Z,13.10
2023-04-27T01:23:17.635Z,13.10
2023-04-27T01:25:45.223Z,13.10
2023-04-27T01:28:12.589Z,13.00
2023-04-27T01:30:39.786Z,13.00
2023-04-27T01:33:07.072Z,13.00
2023-04-27T01:35:34.329Z,12.90
2023-04-27T01:38:02.591Z,12.90
2023-04-27T01:40:29.842Z,12.90
2023-04-27T01:42:57.063Z,12.90
2023-04-27T01:45:24.384Z,12.90
2023-04-27T01:47:52.757Z,12.80
2023-04-27T01:50:21.345Z,12.80
2023-04-27T01:52:48.690Z,12.70
2023-04-27T01:55:16.001Z,12.70
2023-04-27T01:57:43.457Z,12.70
2023-04-27T02:00:11.343Z,12.70
2023-04-27T02:02:53.526Z,12.70
2023-04-27T02:05:24.135Z,12.60
2023-04-27T02:07:53.287Z,12.50
2023-04-27T02:10:23.051Z,12.50
2023-04-27T02:12:50.300Z,12.50
2023-04-27T02:15:17.876Z,12.40
2023-04-27T02:17:45.467Z,12.40
2023-04-27T02:20:13.383Z,12.60
2023-04-27T02:22:44.679Z,12.50
2023-04-27T02:25:12.924Z,12.30
2023-04-27T02:27:41.264Z,12.30
2023-04-27T02:30:10.854Z,12.30
2023-04-27T02:32:38.892Z,12.40
2023-04-27T02:35:06.866Z,12.30
2023-04-27T02:37:34.655Z,12.30
2023-04-27T02:40:04.101Z,12.30
2023-04-27T02:42:33.014Z,12.20
2023-04-27T02:45:00.308Z,12.20
2023-04-27T02:47:27.499Z,12.20
2023-04-27T02:49:54.715Z,12.20
2023-04-27T02:52:21.952Z,12.20
2023-04-27T02:54:49.173Z,12.20
2023-04-27T02:57:16.422Z,12.20
2023-04-27T02:59:43.647Z,12.10
2023-04-27T03:02:11.001Z,12.10
2023-04-27T03:04:38.816Z,12.20
2023-04-27T03:07:06.419Z,12.30
2023-04-27T03:09:33.696Z,12.20
2023-04-27T03:12:01.264Z,12.10
2023-04-27T03:14:28.544Z,12.00
2023-04-27T03:16:57.362Z,11.90
2023-04-27T03:19:24.627Z,11.90
2023-04-27T03:21:51.839Z,11.80
2023-04-27T03:24:19.044Z,11.80
2023-04-27T03:26:46.252Z,11.80
2023-04-27T03:29:13.835Z,11.80
2023-04-27T03:31:41.267Z,11.80
2023-04-27T03:34:08.538Z,11.70
2023-04-27T03:36:35.919Z,11.70
2023-04-27T03:39:03.138Z,11.60
2023-04-27T03:41:30.477Z,11.60
2023-04-27T03:43:57.820Z,11.60
2023-04-27T03:46:25.103Z,11.50
2023-04-27T03:48:52.670Z,11.50
2023-04-27T03:51:20.312Z,11.50
2023-04-27T03:53:47.596Z,11.50
2023-04-27T03:56:14.975Z,11.50
2023-04-27T03:58:42.241Z,11.50
2023-04-27T04:01:14.755Z,11.60
2023-04-27T04:03:42.466Z,11.50
2023-04-27T04:06:09.978Z,11.50
2023-04-27T04:08:37.656Z,11.50
2023-04-27T04:11:04.998Z,11.60
2023-04-27T04:13:32.258Z,11.60
2023-04-27T04:16:07.999Z,11.60
2023-04-27T04:18:36.926Z,11.50
2023-04-27T04:21:05.464Z,11.60
2023-04-27T04:23:32.958Z,11.50
2023-04-27T04:26:02.067Z,11.50
2023-04-27T04:28:33.286Z,11.60
2023-04-27T04:31:05.595Z,11.50
2023-04-27T04:33:33.552Z,11.60
2023-04-27T04:36:05.097Z,11.60
2023-04-27T04:38:34.085Z,11.60
2023-04-27T04:41:01.451Z,11.60
2023-04-27T04:43:32.012Z,11.60
2023-04-27T04:46:03.853Z,11.60
2023-04-27T04:48:31.122Z,11.50
2023-04-27T04:50:58.405Z,11.60
2023-04-27T04:53:26.135Z,11.60
2023-04-27T04:55:55.903Z,11.60
2023-04-27T04:58:23.143Z,11.60
2023-04-27T05:00:50.513Z,11.60
2023-04-27T05:03:17.872Z,11.60
2023-04-27T05:05:45.355Z,11.60
2023-04-27T05:08:13.244Z,11.60
2023-04-27T05:10:40.614Z,11.60
2023-04-27T05:13:07.878Z,11.60
2023-04-27T05:15:37.565Z,11.60
2023-04-27T05:18:04.848Z,11.60
2023-04-27T05:20:35.723Z,11.70
2023-04-27T05:23:03.231Z,11.80
2023-04-27T05:25:34.729Z,11.80
2023-04-27T05:28:01.981Z,11.90
2023-04-27T05:30:29.185Z,11.80
2023-04-27T05:32:56.392Z,11.90
2023-04-27T05:35:23.728Z,12.00
2023-04-27T05:37:51.050Z,12.00
2023-04-27T05:40:18.372Z,12.10
2023-04-27T05:42:48.523Z,12.10
2023-04-27T05:45:15.950Z,12.20
2023-04-27T05:47:43.294Z,12.30
2023-04-27T05:50:11.162Z,12.40
2023-04-27T05:52:39.074Z,12.40
2023-04-27T05:55:07.983Z,12.50
2023-04-27T05:57:35.273Z,12.60
2023-04-27T06:00:08.383Z,12.70
2023-04-27T06:02:39.584Z,12.90
2023-04-27T06:05:07.322Z,13.10
2023-04-27T06:07:34.561Z,13.50
2023-04-27T06:10:01.766Z,13.70
2023-04-27T06:12:29.012Z,14.10
2023-04-27T06:14:56.232Z,14.40
2023-04-27T06:17:23.478Z,14.80
2023-04-27T06:19:51.546Z,15.10
2023-04-27T06:22:18.761Z,15.70
2023-04-27T06:24:47.233Z,16.20
2023-04-27T06:27:14.653Z,16.70
2023-04-27T06:29:41.997Z,17.20
2023-04-27T06:32:09.304Z,17.30
2023-04-27T06:34:36.770Z,17.30
2023-04-27T06:37:03.950Z,17.60
2023-04-27T06:39:32.038Z,18.10
2023-04-27T06:41:59.280Z,18.60
2023-04-27T06:44:26.832Z,19.00
2023-04-27T06:46:54.185Z,19.20
2023-04-27T06:49:21.474Z,19.40
2023-04-27T06:51:49.358Z,19.70
2023-04-27T06:54:16.762Z,20.10
2023-04-27T06:56:44.748Z,20.70
2023-04-27T06:59:12.269Z,21.20
2023-04-27T07:01:40.129Z,21.60
2023-04-27T07:04:07.474Z,22.00
2023-04-27T07:06:34.716Z,22.00
2023-04-27T07:09:02.541Z,22.00
2023-04-27T07:11:31.859Z,22.40
2023-04-27T07:13:59.068Z,22.70
2023-04-27T07:16:26.857Z,22.40
2023-04-27T07:18:54.209Z,22.10
2023-04-27T07:21:21.568Z,21.60
2023-04-27T07:23:48.771Z,21.00
2023-04-27T07:26:16.029Z,20.50
2023-04-27T07:28:44.132Z,20.40
2023-04-27T07:31:11.498Z,20.40
2023-04-27T07:33:38.849Z,20.40
2023-04-27T07:36:07.281Z,20.70
2023-04-27T07:38:34.734Z,20.50
2023-04-27T07:41:05.769Z,20.30
2023-04-27T07:43:33.289Z,20.50
2023-04-27T07:46:00.744Z,20.70
2023-04-27T07:48:31.206Z,20.90
2023-04-27T07:50:58.485Z,21.30
2023-04-27T07:53:25.718Z,22.10
2023-04-27T07:55:52.918Z,22.40
2023-04-27T07:58:20.264Z,22.30
2023-04-27T08:00:47.578Z,21.90
2023-04-27T08:03:14.963Z,22.00
2023-04-27T08:05:42.602Z,22.10
2023-04-27T08:08:09.990Z,22.30
2023-04-27T08:10:38.137Z,22.10
2023-04-27T08:13:06.136Z,22.00
2023-04-27T08:15:33.343Z,21.80
2023-04-27T08:18:00.700Z,21.40
2023-04-27T08:20:28.065Z,21.30
2023-04-27T08:22:55.529Z,21.50
2023-04-27T08:25:22.713Z,21.60
2023-04-27T08:27:49.957Z,21.80
2023-04-27T08:30:17.660Z,21.80
2023-04-27T08:32:44.906Z,21.40
2023-04-27T08:35:13.499Z,21.40
2023-04-27T08:37:40.920Z,21.70
2023-04-27T08:40:10.066Z,21.80
2023-04-27T08:42:37.820Z,21.50
2023-04-27T08:45:12.248Z,21.40
2023-04-27T08:47:43.753Z,22.10
2023-04-27T08:50:16.277Z,22.40
2023-04-27T08:52:51.382Z,22.20
2023-04-27T08:55:24.470Z,22.50
2023-04-27T08:57:58.222Z,22.80
2023-04-27T09:00:46.645Z,22.90
2023-04-27T09:03:27.620Z,22.90
2023-04-27T09:06:04.507Z,23.10
2023-04-27T09:08:49.843Z,23.20
2023-04-27T09:11:29.765Z,23.00
2023-04-27T09:13:58.783Z,23.00
2023-04-27T09:16:29.169Z,23.20
2023-04-27T09:18:58.427Z,22.30
2023-04-27T09:21:38.177Z,22.40
2023-04-27T09:24:13.323Z,22.00
2023-04-27T09:26:42.936Z,21.50
2023-04-27T09:29:10.296Z,21.30
2023-04-27T09:31:37.598Z,21.70
2023-04-27T09:34:04.937Z,22.00
2023-04-27T09:36:32.855Z,22.00
2023-04-27T09:39:04.676Z,22.10
2023-04-27T09:41:33.315Z,22.20
2023-04-27T09:44:01.982Z,22.30
2023-04-27T09:46:30.696Z,22.70
2023-04-27T09:48:58.222Z,22.90
2023-04-27T09:51:26.053Z,22.70
2023-04-27T09:53:58.569Z,22.30
2023-04-27T09:57:04.844Z,22.10
2023-04-27T09:59:49.424Z,21.80
2023-04-27T10:05:12.977Z,21.10
2023-04-27T10:07:41.580Z,20.90
2023-04-27T10:10:20.316Z,21.20
2023-04-27T10:13:01.768Z,21.80
2023-04-27T10:15:30.413Z,22.00
2023-04-27T10:18:04.528Z,22.10
2023-04-27T10:20:36.966Z,21.70
2023-04-27T10:23:04.775Z,21.70
2023-04-27T10:25:40.860Z,21.90
2023-04-27T10:28:09.119Z,22.20
2023-04-27T10:30:46.222Z,22.40
2023-04-27T10:33:17.582Z,22.00
2023-04-27T10:35:55.129Z,21.90
2023-04-27T10:38:28.412Z,21.80
2023-04-27T10:40:58.103Z,22.00
2023-04-27T10:43:27.796Z,22.10
2023-04-27T10:45:55.851Z,22.10
2023-04-27T10:48:23.134Z,21.90
2023-04-27T10:50:53.169Z,22.00
2023-04-27T10:53:20.534Z,22.10
2023-04-27T10:55:47.855Z,22.00
2023-04-27T10:58:15.292Z,22.00
2023-04-27T11:00:44.191Z,21.80
2023-04-27T11:03:19.464Z,21.90
2023-04-27T11:05:49.484Z,21.70
2023-04-27T11:08:18.776Z,21.50
2023-04-27T11:10:49.884Z,21.70
2023-04-27T11:13:22.450Z,21.80
2023-04-27T11:15:54.854Z,22.10
2023-04-27T11:18:27.734Z,22.00
2023-04-27T11:21:07.341Z,21.80
2023-04-27T11:23:38.527Z,21.90
2023-04-27T11:26:11.019Z,21.70
2023-04-27T11:28:39.122Z,21.80
2023-04-27T11:31:06.819Z,21.70
2023-04-27T11:33:35.831Z,21.50
2023-04-27T11:36:03.485Z,21.60
2023-04-27T11:38:34.247Z,21.70
2023-04-27T11:41:04.830Z,22.00
2023-04-27T11:43:32.987Z,21.50
2023-04-27T11:46:08.126Z,21.20
2023-04-27T11:48:37.599Z,20.90
2023-04-27T11:51:06.096Z,20.90
2023-04-27T11:53:36.946Z,21.00
2023-04-27T11:56:07.741Z,21.00
2023-04-27T11:58:39.681Z,21.10
2023-04-27T12:01:07.708Z,21.30
2023-04-27T12:03:35.722Z,21.00
2023-04-27T12:06:16.601Z,20.90
2023-04-27T12:08:51.123Z,20.80
2023-04-27T12:11:18.833Z,20.90
2023-04-27T12:13:47.178Z,21.00
2023-04-27T12:16:14.582Z,21.20
2023-04-27T12:18:42.058Z,21.20
2023-04-27T12:21:10.315Z,21.30
2023-04-27T12:23:37.555Z,21.20
2023-04-27T12:26:05.108Z,21.20
2023-04-27T12:28:32.431Z,21.30
2023-04-27T12:31:03.932Z,21.40
2023-04-27T12:33:31.930Z,21.10
2023-04-27T12:35:59.248Z,20.90
2023-04-27T12:38:27.029Z,20.80
2023-04-27T12:40:54.284Z,20.80
2023-04-27T12:43:21.570Z,21.00
2023-04-27T12:45:48.930Z,20.90
2023-04-27T12:48:17.704Z,21.00
2023-04-27T12:50:45.141Z,21.00
2023-04-27T12:53:12.459Z,21.40
2023-04-27T12:55:39.847Z,21.50
2023-04-27T12:58:08.178Z,21.60
2023-04-27T13:00:35.817Z,21.70
2023-04-27T13:03:03.694Z,21.60
2023-04-27T13:05:32.313Z,21.30
2023-04-27T13:07:59.811Z,21.40
2023-04-27T13:10:28.740Z,21.40
2023-04-27T13:12:56.090Z,21.30
2023-04-27T13:15:23.324Z,21.00
2023-04-27T13:17:53.042Z,21.10
2023-04-27T13:20:21.098Z,21.30
2023-04-27T13:22:48.415Z,21.40
2023-04-27T13:25:16.767Z,21.20
2023-04-27T13:27:44.001Z,21.10
2023-04-27T13:30:11.662Z,21.20
2023-04-27T13:32:38.996Z,21.40
2023-04-27T13:35:07.722Z,21.50
2023-04-27T13:37:35.094Z,21.50
2023-04-27T13:40:02.366Z,21.50
2023-04-27T13:42:29.737Z,21.60
2023-04-27T13:44:57.097Z,21.70
2023-04-27T13:47:24.405Z,21.70
2023-04-27T13:49:51.639Z,21.70
2023-04-27T13:52:18.858Z,21.30
2023-04-27T13:54:46.023Z,21.00
2023-04-27T13:57:13.232Z,21.10
2023-04-27T13:59:40.458Z,21.10
2023-04-27T14:02:08.353Z,21.10
2023-04-27T14:04:35.692Z,21.20
2023-04-27T14:07:03.005Z,21.30
2023-04-27T14:09:30.403Z,21.40
2023-04-27T14:11:57.732Z,21.50
2023-04-27T14:14:25.041Z,21.60
2023-04-27T14:16:56.790Z,21.60
2023-04-27T14:19:24.153Z,21.60
2023-04-27T14:21:51.401Z,21.50
2023-04-27T14:24:18.730Z,21.40
2023-04-27T14:26:47.514Z,21.40
2023-04-27T14:29:15.100Z,21.40
2023-04-27T14:31:42.718Z,21.50
2023-04-27T14:34:10.830Z,21.40
2023-04-27T14:36:38.074Z,21.30
2023-04-27T14:39:06.685Z,21.40
2023-04-27T14:41:35.509Z,21.30
2023-04-27T14:44:04.484Z,21.20
2023-04-27T14:46:31.841Z,21.10
2023-04-27T14:48:59.260Z,20.90
2023-04-27T14:51:26.645Z,20.90
2023-04-27T14:53:53.973Z,21.00
2023-04-27T14:56:23.070Z,21.20
2023-04-27T14:58:50.383Z,21.20
2023-04-27T15:01:18.268Z,21.20
2023-04-27T15:03:45.961Z,21.30
2023-04-27T15:06:13.812Z,21.30
2023-04-27T15:08:41.035Z,21.40
2023-04-27T15:11:08.329Z,21.40
2023-04-27T15:13:35.590Z,21.20
2023-04-27T15:16:04.858Z,21.10
2023-04-27T15:18:32.473Z,21.00
2023-04-27T15:21:00.128Z,21.00
2023-04-27T15:23:27.803Z,21.10
2023-04-27T15:25:56.587Z,21.00
2023-04-27T15:28:24.097Z,20.90
2023-04-27T15:30:51.545Z,20.90
2023-04-27T15:33:19.129Z,20.80
2023-04-27T15:35:46.570Z,20.80
2023-04-27T15:38:15.086Z,20.80
2023-04-27T15:40:42.444Z,20.80
2023-04-27T15:43:09.708Z,20.90
2023-04-27T15:45:37.299Z,20.90
2023-04-27T15:48:04.768Z,20.90
2023-04-27T15:50:32.045Z,20.90
2023-04-27T15:52:59.277Z,20.90
2023-04-27T15:55:26.620Z,20.90
2023-04-27T15:57:54.116Z,20.90
2023-04-27T16:00:22.493Z,20.90
2023-04-27T16:02:50.281Z,20.80
2023-04-27T16:05:17.862Z,20.80
2023-04-27T16:07:45.775Z,20.80
2023-04-27T16:10:13.458Z,20.70
2023-04-27T16:12:41.009Z,20.70
2023-04-27T16:15:10.923Z,20.70
2023-04-27T16:17:39.261Z,20.70
2023-04-27T16:20:07.609Z,20.60
2023-04-27T16:22:36.369Z,20.70
2023-04-27T16:25:06.575Z,20.70
2023-04-27T16:27:34.316Z,20.70
2023-04-27T16:30:01.679Z,20.60
2023-04-27T16:32:29.008Z,20.50
2023-04-27T16:34:56.342Z,20.50
2023-04-27T16:37:23.705Z,20.50
2023-04-27T16:39:51.254Z,20.50
2023-04-27T16:42:20.599Z,20.40
2023-04-27T16:44:48.097Z,20.40
2023-04-27T16:47:15.380Z,20.40
2023-04-27T16:49:44.208Z,20.40
2023-04-27T16:52:12.122Z,20.40
2023-04-27T16:54:39.341Z,20.50
2023-04-27T16:57:07.741Z,20.40
2023-04-27T16:59:34.998Z,20.40
2023-04-27T17:02:12.856Z,20.40
2023-04-27T17:04:48.660Z,20.40
2023-04-27T17:07:15.794Z,20.30
2023-04-27T17:09:43.057Z,20.30
2023-04-27T17:12:14.861Z,20.30
2023-04-27T17:14:42.577Z,20.30
2023-04-27T17:17:11.088Z,20.30
2023-04-27T17:19:39.076Z,20.20
2023-04-27T17:22:08.393Z,20.20
2023-04-27T17:24:35.635Z,20.10
2023-04-27T17:27:04.267Z,20.10
2023-04-27T17:29:31.914Z,19.90
2023-04-27T17:31:59.217Z,20.00
2023-04-27T17:34:26.433Z,19.90
2023-04-27T17:36:53.695Z,20.00
2023-04-27T17:39:22.669Z,20.00
2023-04-27T17:41:49.924Z,19.90
2023-04-27T17:44:17.353Z,19.80
2023-04-27T17:46:49.252Z,19.70
2023-04-27T17:49:17.680Z,19.60
2023-04-27T17:51:45.627Z,19.50
2023-04-27T17:54:13.057Z,19.50
2023-04-27T17:56:40.423Z,19.40
2023-04-27T17:59:08.862Z,19.30
2023-04-27T18:01:36.522Z,19.20
2023-04-27T18:04:06.499Z,19.20
2023-04-27T18:06:34.039Z,19.00
2023-04-27T18:09:01.589Z,18.90
2023-04-27T18:11:29.177Z,18.80
2023-04-27T18:13:58.060Z,18.70
2023-04-27T18:16:25.708Z,18.60
2023-04-27T18:18:53.083Z,18.60
2023-04-27T18:21:20.402Z,18.40
2023-04-27T18:23:47.780Z,18.40
2023-04-27T18:26:15.013Z,18.30
2023-04-27T18:28:42.252Z,18.30
2023-04-27T18:31:16.138Z,18.20
2023-04-27T18:33:44.282Z,18.20
2023-04-27T18:36:11.705Z,18.20
2023-04-27T18:38:38.979Z,18.10
2023-04-27T18:41:06.793Z,18.10
2023-04-27T18:43:37.137Z,18.10
2023-04-27T18:46:04.894Z,18.00
2023-04-27T18:48:32.423Z,17.90
2023-04-27T18:50:59.787Z,17.80
2023-04-27T18:53:27.874Z,17.80
2023-04-27T18:55:55.594Z,17.70
2023-04-27T18:58:23.109Z,17.70
2023-04-27T19:00:50.498Z,17.60
2023-04-27T19:03:17.959Z,17.50
2023-04-27T19:05:45.430Z,17.50
2023-04-27T19:08:12.806Z,17.50
2023-04-27T19:10:42.814Z,17.50
2023-04-27T19:13:10.111Z,17.50
2023-04-27T19:15:37.429Z,17.40
2023-04-27T19:18:10.650Z,17.40
2023-04-27T19:20:39.248Z,17.40
2023-04-27T19:23:07.954Z,17.30
2023-04-27T19:25:35.684Z,17.30
2023-04-27T19:28:02.950Z,17.20
2023-04-27T19:30:30.346Z,17.20
2023-04-27T19:32:57.572Z,17.10
2023-04-27T19:35:26.380Z,17.10
2023-04-27T19:37:53.585Z,17.10
2023-04-27T19:40:21.387Z,17.00
2023-04-27T19:42:48.667Z,17.00
2023-04-27T19:45:17.888Z,16.90
2023-04-27T19:47:45.983Z,16.90
2023-04-27T19:50:13.421Z,16.80
2023-04-27T19:52:40.829Z,16.80
2023-04-27T19:55:08.358Z,16.80
2023-04-27T19:57:36.373Z,16.80
2023-04-27T20:00:06.830Z,16.80
2023-04-27T20:02:40.447Z,16.70
2023-04-27T20:05:08.674Z,16.70
2023-04-27T20:07:37.378Z,16.70
2023-04-27T20:10:05.513Z,16.60
2023-04-27T20:12:51.583Z,16.60
2023-04-27T20:15:20.214Z,16.60
2023-04-27T20:17:47.788Z,16.60
2023-04-27T20:20:15.076Z,16.60
2023-04-27T20:22:42.696Z,16.50
2023-04-27T20:25:10.017Z,16.40
2023-04-27T20:27:37.241Z,16.40
2023-04-27T20:30:05.003Z,16.40
2023-04-27T20:32:32.262Z,16.30
2023-04-27T20:35:01.404Z,16.30
2023-04-27T20:37:29.375Z,16.20
2023-04-27T20:39:56.746Z,16.20
2023-04-27T20:42:24.486Z,16.10
2023-04-27T20:44:54.647Z,16.10
2023-04-27T20:47:22.451Z,16.00
2023-04-27T20:49:53.453Z,16.00
2023-04-27T20:52:21.311Z,16.00
2023-04-27T20:54:49.411Z,15.90
2023-04-27T20:57:17.680Z,15.80
2023-04-27T20:59:45.835Z,15.70
2023-04-27T21:02:13.795Z,15.60
2023-04-27T21:04:42.271Z,15.60
2023-04-27T21:07:10.548Z,15.60
2023-04-27T21:09:39.082Z,15.60
2023-04-27T21:12:07.301Z,15.50
2023-04-27T21:14:35.348Z,15.30
2023-04-27T21:17:03.753Z,15.20
2023-04-27T21:19:31.723Z,15.00
2023-04-27T21:21:59.154Z,15.00
2023-04-27T21:24:26.933Z,15.00
2023-04-27T21:26:54.892Z,15.10
2023-04-27T21:29:22.517Z,15.10
2023-04-27T21:31:51.002Z,15.00
2023-04-27T21:34:18.879Z,15.00
2023-04-27T21:36:49.399Z,15.00
2023-04-27T21:39:16.712Z,14.90
2023-04-27T21:41:44.493Z,15.00
2023-04-27T21:44:16.027Z,14.90
2023-04-27T21:46:44.397Z,14.90
2023-04-27T21:49:12.292Z,14.90
2023-04-27T21:51:39.774Z,14.90
2023-04-27T21:54:07.235Z,14.70
2023-04-27T21:56:35.546Z,14.70
2023-04-27T21:59:04.203Z,14.60
2023-04-27T22:01:32.298Z,14.60
2023-04-27T22:04:06.394Z,14.50
2023-04-27T22:06:34.466Z,14.60
2023-04-27T22:09:06.595Z,14.60
2023-04-27T22:11:35.553Z,14.60
2023-04-27T22:14:03.579Z,14.70
2023-04-27T22:16:35.187Z,14.70
2023-04-27T22:19:05.310Z,14.70
2023-04-27T22:21:33.355Z,14.70
2023-04-27T22:24:01.314Z,14.70
2023-04-27T22:26:32.216Z,14.70
2023-04-27T22:29:00.136Z,14.80
2023-04-27T22:31:28.672Z,14.80
2023-04-27T22:33:58.097Z,14.80
2023-04-27T22:36:28.862Z,14.60
2023-04-27T22:39:02.252Z,14.60
2023-04-27T22:41:32.533Z,14.60
2023-04-27T22:44:01.502Z,14.60
2023-04-27T22:46:32.820Z,14.70
2023-04-27T22:49:01.871Z,14.70
2023-04-27T22:51:30.039Z,14.60
2023-04-27T22:53:58.335Z,14.40
2023-04-27T22:56:26.552Z,14.40
2023-04-27T22:58:57.458Z,14.40
2023-04-27T23:01:24.858Z,14.40
2023-04-27T23:03:53.543Z,14.40
2023-04-27T23:06:21.162Z,14.40
2023-04-27T23:08:48.385Z,14.40
2023-04-27T23:11:18.875Z,14.40
2023-04-27T23:13:48.060Z,14.40
2023-04-27T23:16:15.628Z,14.30
2023-04-27T23:18:42.884Z,14.40
2023-04-27T23:21:11.770Z,14.30
2023-04-27T23:23:39.046Z,14.30
2023-04-27T23:26:16.343Z,14.20
2023-04-27T23:28:43.741Z,14.20
2023-04-27T23:31:11.265Z,14.30
2023-04-27T23:33:38.501Z,14.30
2023-04-27T23:36:06.320Z,14.20
2023-04-27T23:38:33.588Z,14.20
2023-04-27T23:41:00.970Z,14.20
2023-04-27T23:43:28.361Z,14.10
2023-04-27T23:45:55.805Z,14.00
2023-04-27T23:48:23.135Z,13.90
2023-04-27T23:51:01.649Z,13.90
2023-04-27T23:53:29.435Z,14.00
2023-04-27T23:55:57.043Z,14.00
2023-04-27T23:58:25.967Z,14.00
